Time;durP1;ratioP1;P1;durP2;ratioP2;P2;SDS_P1;SDS_P2;PMS_P1;PMS_P2;Temp;Humidity;BMP_temperature;BMP_pressure;BME280_temperature;BME280_humidity;BME280_pressure;Samples;Min_cycle;Max_cycle;Signal;HPM_P1;HPM_P2
2021/10/09 00:01:33;;;;;;;;;;;8.20;99.90;;;;;;5085628;28;19916;-73
2021/10/09 00:03:58;;;;;;;;;;;8.20;99.90;;;;;;5080332;28;19920;-73
2021/10/09 00:06:23;;;;;;;;;;;8.10;99.90;;;;;;5087102;28;20321;-74
2021/10/09 00:08:49;;;;;;;;;;;8.10;99.90;;;;;;5084561;28;20398;-73
2021/10/09 00:11:18;;;;;;;;;;;8.10;99.90;;;;;;5086796;28;19920;-74
2021/10/09 00:13:43;;;;;;;;;;;8.10;99.90;;;;;;5083780;28;19912;-74
2021/10/09 00:16:09;;;;;;;;;;;8.00;99.90;;;;;;5085839;28;19923;-73
2021/10/09 00:18:34;;;;;;;;;;;8.00;99.90;;;;;;5086266;28;19936;-73
2021/10/09 00:21:00;;;;;;;;;;;8.00;99.90;;;;;;5085666;28;19916;-72
2021/10/09 00:23:25;;;;;;;;;;;8.00;99.90;;;;;;5086070;28;19938;-73
2021/10/09 00:25:51;;;;;;;;;;;7.90;99.90;;;;;;5086168;28;20018;-73
2021/10/09 00:28:17;;;;;;;;;;;7.90;99.90;;;;;;5088821;28;19923;-74
2021/10/09 00:30:42;;;;;;;;;;;7.90;99.90;;;;;;5091083;28;19920;-73
2021/10/09 00:33:07;;;;;;;;;;;7.90;99.90;;;;;;5089767;28;19924;-72
2021/10/09 00:35:33;;;;;;;;;;;7.90;99.90;;;;;;5072051;28;20317;-73
2021/10/09 00:37:58;;;;;;;;;;;7.90;99.90;;;;;;5091710;28;19960;-73
2021/10/09 00:40:24;;;;;;;;;;;7.90;99.90;;;;;;5089351;28;19912;-73
2021/10/09 00:42:49;;;;;;;;;;;7.80;99.90;;;;;;5090224;28;19959;-71
2021/10/09 00:45:15;;;;;;;;;;;7.80;99.90;;;;;;5089739;28;20389;-70
2021/10/09 00:47:40;;;;;;;;;;;7.80;99.90;;;;;;5090674;28;20318;-71
2021/10/09 00:50:06;;;;;;;;;;;7.80;99.90;;;;;;5090644;28;20351;-70
2021/10/09 00:52:32;;;;;;;;;;;7.80;99.90;;;;;;5086486;28;19957;-70
2021/10/09 00:55:00;;;;;;;;;;;7.70;99.90;;;;;;5070399;28;20351;-69
2021/10/09 00:57:26;;;;;;;;;;;7.70;99.90;;;;;;5088344;28;19927;-71
2021/10/09 00:59:53;;;;;;;;;;;7.70;99.90;;;;;;5091196;28;19908;-71
2021/10/09 01:02:19;;;;;;;;;;;7.60;99.90;;;;;;5087971;28;19912;-71
2021/10/09 01:04:45;;;;;;;;;;;7.60;99.90;;;;;;5089719;28;20003;-71
2021/10/09 01:07:11;;;;;;;;;;;7.60;99.90;;;;;;5086346;28;20177;-71
2021/10/09 01:09:36;;;;;;;;;;;7.60;99.90;;;;;;5087518;28;19922;-70
2021/10/09 01:12:01;;;;;;;;;;;7.50;99.90;;;;;;5088868;28;20007;-70
2021/10/09 01:14:27;;;;;;;;;;;7.60;99.90;;;;;;5089612;28;20432;-70
2021/10/09 01:16:52;;;;;;;;;;;7.50;99.90;;;;;;5089752;28;19912;-72
2021/10/09 01:19:19;;;;;;;;;;;7.50;99.90;;;;;;5090220;28;19912;-71
2021/10/09 01:21:46;;;;;;;;;;;7.50;99.90;;;;;;5070839;28;19965;-72
2021/10/09 01:24:12;;;;;;;;;;;7.50;99.90;;;;;;5088929;28;20385;-71
2021/10/09 01:26:37;;;;;;;;;;;7.50;99.90;;;;;;5070586;28;19962;-71
2021/10/09 01:29:04;;;;;;;;;;;7.50;99.90;;;;;;5087050;28;19939;-71
2021/10/09 01:31:30;;;;;;;;;;;7.50;99.90;;;;;;5087602;28;19964;-71
2021/10/09 01:33:56;;;;;;;;;;;7.40;99.90;;;;;;5089262;28;19996;-71
2021/10/09 01:36:21;;;;;;;;;;;7.40;99.90;;;;;;5085714;28;20358;-71
2021/10/09 01:38:50;;;;;;;;;;;7.40;99.90;;;;;;5087977;28;19924;-70
2021/10/09 01:41:16;;;;;;;;;;;7.40;99.90;;;;;;5085269;28;19908;-71
2021/10/09 01:43:41;;;;;;;;;;;7.40;99.90;;;;;;5067781;28;19920;-71
2021/10/09 01:46:07;;;;;;;;;;;7.30;99.90;;;;;;5087820;28;19922;-70
2021/10/09 01:48:33;;;;;;;;;;;7.30;99.90;;;;;;5088219;28;20293;-70
2021/10/09 01:50:59;;;;;;;;;;;7.30;99.90;;;;;;5086506;28;19916;-71
2021/10/09 01:53:25;;;;;;;;;;;7.30;99.90;;;;;;5089683;28;19985;-70
2021/10/09 01:55:51;;;;;;;;;;;7.30;99.90;;;;;;5087846;28;19938;-71
2021/10/09 01:58:16;;;;;;;;;;;7.30;99.90;;;;;;5087145;28;19916;-71
2021/10/09 02:00:41;;;;;;;;;;;7.30;99.90;;;;;;5086024;28;19916;-71
2021/10/09 02:03:08;;;;;;;;;;;7.30;99.90;;;;;;5068418;28;19984;-71
2021/10/09 02:05:34;;;;;;;;;;;7.20;99.90;;;;;;5086290;28;19927;-70
2021/10/09 02:07:59;;;;;;;;;;;7.20;99.90;;;;;;5068857;28;19912;-70
2021/10/09 02:10:25;;;;;;;;;;;7.20;99.90;;;;;;5087930;28;19989;-71
2021/10/09 02:12:51;;;;;;;;;;;7.30;99.90;;;;;;5071551;28;19974;-71
2021/10/09 02:15:21;;;;;;;;;;;7.20;99.90;;;;;;5087473;28;20298;-71
2021/10/09 02:25:58;;;;;;;;;;;7.20;99.90;;;;;;5088516;28;19935;-71
2021/10/09 02:28:24;;;;;;;;;;;7.20;99.90;;;;;;5071135;28;20748;-71
2021/10/09 02:30:51;;;;;;;;;;;7.20;99.90;;;;;;5087366;28;19995;-71
2021/10/09 02:33:16;;;;;;;;;;;7.10;99.90;;;;;;5069207;28;19923;-70
2021/10/09 02:35:42;;;;;;;;;;;7.10;99.90;;;;;;5086654;28;19916;-71
2021/10/09 02:38:08;;;;;;;;;;;7.10;99.90;;;;;;5089164;28;20287;-71
2021/10/09 02:40:34;;;;;;;;;;;7.00;99.90;;;;;;5087216;28;19912;-72
2021/10/09 02:43:01;;;;;;;;;;;7.00;99.90;;;;;;5086751;28;20374;-71
2021/10/09 02:45:27;;;;;;;;;;;6.90;99.90;;;;;;5070583;28;19920;-71
2021/10/09 02:47:55;;;;;;;;;;;6.90;99.90;;;;;;5070003;28;19912;-71
2021/10/09 02:50:20;;;;;;;;;;;6.90;99.90;;;;;;5065523;28;19923;-70
2021/10/09 02:52:46;;;;;;;;;;;6.80;99.90;;;;;;5068368;28;19908;-71
2021/10/09 02:55:16;;;;;;;;;;;6.80;99.90;;;;;;5086841;28;19916;-71
2021/10/09 02:57:42;;;;;;;;;;;6.80;99.90;;;;;;5087312;28;19916;-71
2021/10/09 03:00:08;;;;;;;;;;;6.80;99.90;;;;;;5082808;28;20340;-70
2021/10/09 03:02:34;;;;;;;;;;;6.70;99.90;;;;;;5086654;28;19932;-70
2021/10/09 03:05:01;;;;;;;;;;;6.70;99.90;;;;;;5087081;28;19963;-72
2021/10/09 03:07:26;;;;;;;;;;;6.70;99.90;;;;;;5084352;28;19916;-72
2021/10/09 03:09:51;;;;;;;;;;;6.70;99.90;;;;;;5085578;28;20371;-71
2021/10/09 03:12:17;;;;;;;;;;;6.70;99.90;;;;;;5085829;28;19916;-70
2021/10/09 03:14:42;;;;;;;;;;;6.60;99.90;;;;;;5088663;28;19916;-70
2021/10/09 03:17:08;;;;;;;;;;;6.60;99.90;;;;;;5072515;28;19919;-70
2021/10/09 03:19:33;;;;;;;;;;;6.60;99.90;;;;;;5087686;28;20314;-70
2021/10/09 03:21:59;;;;;;;;;;;6.60;99.90;;;;;;5087021;28;20309;-70
2021/10/09 03:24:24;;;;;;;;;;;6.60;99.90;;;;;;5086910;28;19916;-71
2021/10/09 03:26:50;;;;;;;;;;;6.50;99.90;;;;;;5085721;28;20287;-71
2021/10/09 03:29:15;;;;;;;;;;;6.50;99.90;;;;;;5087474;28;20298;-71
2021/10/09 03:31:40;;;;;;;;;;;6.50;99.90;;;;;;5067147;28;20389;-70
2021/10/09 03:34:06;;;;;;;;;;;6.50;99.90;;;;;;5069676;28;19916;-70
2021/10/09 03:36:31;;;;;;;;;;;6.50;99.90;;;;;;5068941;28;20006;-71
2021/10/09 03:38:57;;;;;;;;;;;6.50;99.90;;;;;;5087999;28;19916;-71
2021/10/09 03:41:22;;;;;;;;;;;6.50;99.90;;;;;;5066156;28;19959;-70
2021/10/09 03:43:48;;;;;;;;;;;6.50;99.90;;;;;;5087736;28;20289;-71
2021/10/09 03:46:22;;;;;;;;;;;6.50;99.90;;;;;;5068178;28;20489;-71
2021/10/09 03:49:03;;;;;;;;;;;6.50;99.90;;;;;;5069619;28;20008;-70
2021/10/09 03:54:13;;;;;;;;;;;6.40;99.90;;;;;;5086047;28;19999;-70
2021/10/09 03:56:39;;;;;;;;;;;6.40;99.90;;;;;;5084518;28;20400;-70
2021/10/09 03:59:04;;;;;;;;;;;6.40;99.90;;;;;;5084728;28;19920;-71
2021/10/09 04:01:30;;;;;;;;;;;6.40;99.90;;;;;;5087141;28;19923;-71
2021/10/09 04:03:56;;;;;;;;;;;6.40;99.90;;;;;;5086222;28;20356;-71
2021/10/09 04:06:21;;;;;;;;;;;6.40;99.90;;;;;;5087397;28;19916;-71
2021/10/09 04:08:46;;;;;;;;;;;6.30;99.90;;;;;;5087474;28;19912;-70
2021/10/09 04:11:12;;;;;;;;;;;6.30;99.90;;;;;;5067138;28;19920;-71
2021/10/09 04:13:37;;;;;;;;;;;6.30;99.90;;;;;;5084632;28;20073;-71
2021/10/09 04:16:03;;;;;;;;;;;6.30;99.90;;;;;;5084572;28;19920;-71
2021/10/09 04:18:28;;;;;;;;;;;6.30;99.90;;;;;;5068176;28;20421;-72
2021/10/09 04:20:54;;;;;;;;;;;6.30;99.90;;;;;;5082696;28;19974;-72
2021/10/09 04:23:19;;;;;;;;;;;6.30;99.90;;;;;;5069454;28;20442;-72
2021/10/09 04:25:44;;;;;;;;;;;6.30;99.90;;;;;;5086117;28;19916;-72
2021/10/09 04:28:10;;;;;;;;;;;6.30;99.90;;;;;;5087515;28;19916;-71
2021/10/09 04:30:35;;;;;;;;;;;6.30;99.90;;;;;;5066274;28;19920;-71
2021/10/09 04:33:01;;;;;;;;;;;6.30;99.90;;;;;;5068417;28;19927;-72
2021/10/09 04:35:27;;;;;;;;;;;6.20;99.90;;;;;;5085886;28;20047;-71
2021/10/09 04:37:52;;;;;;;;;;;6.20;99.90;;;;;;5084747;28;19920;-71
2021/10/09 04:40:17;;;;;;;;;;;6.20;99.90;;;;;;5086036;28;19916;-71
2021/10/09 04:42:43;;;;;;;;;;;6.10;99.90;;;;;;5085859;28;19924;-71
2021/10/09 04:45:08;;;;;;;;;;;6.10;99.90;;;;;;5083031;28;19920;-71
2021/10/09 04:47:34;;;;;;;;;;;6.00;99.90;;;;;;5086028;28;20430;-71
2021/10/09 04:50:00;;;;;;;;;;;6.00;99.90;;;;;;5066491;28;20431;-71
2021/10/09 04:52:25;;;;;;;;;;;6.00;99.90;;;;;;5066493;28;19918;-70
2021/10/09 04:54:50;;;;;;;;;;;6.00;99.90;;;;;;5086003;28;19920;-70
2021/10/09 04:57:16;;;;;;;;;;;5.90;99.90;;;;;;5086733;28;19916;-70
2021/10/09 04:59:41;;;;;;;;;;;5.90;99.90;;;;;;5086360;28;19923;-70
2021/10/09 05:02:07;;;;;;;;;;;5.80;99.90;;;;;;5084028;28;19970;-70
2021/10/09 05:04:32;;;;;;;;;;;5.80;99.90;;;;;;5085519;28;19963;-71
2021/10/09 05:06:58;;;;;;;;;;;5.80;99.90;;;;;;5085502;28;19919;-71
2021/10/09 05:09:23;;;;;;;;;;;5.70;99.90;;;;;;5085728;28;19924;-71
2021/10/09 05:11:48;;;;;;;;;;;5.70;99.90;;;;;;5084366;28;19916;-70
2021/10/09 05:14:14;;;;;;;;;;;5.70;99.90;;;;;;5086653;28;19970;-70
2021/10/09 05:16:39;;;;;;;;;;;5.60;99.90;;;;;;5088998;28;19985;-70
2021/10/09 05:19:05;;;;;;;;;;;5.60;99.90;;;;;;5088231;28;19970;-70
2021/10/09 05:21:30;;;;;;;;;;;5.60;99.90;;;;;;5088252;28;19916;-70
2021/10/09 05:23:56;;;;;;;;;;;5.60;99.90;;;;;;5090737;28;19919;-70
2021/10/09 05:26:21;;;;;;;;;;;5.60;99.90;;;;;;5070769;28;19916;-69
2021/10/09 05:28:48;;;;;;;;;;;5.60;99.90;;;;;;5072371;28;19912;-69
2021/10/09 05:31:25;;;;;;;;;;;5.60;99.90;;;;;;5087250;28;19916;-70
2021/10/09 05:33:52;;;;;;;;;;;5.60;99.90;;;;;;5088774;28;19935;-70
2021/10/09 05:36:17;;;;;;;;;;;5.60;99.90;;;;;;5088467;28;19916;-70
2021/10/09 05:38:43;;;;;;;;;;;5.50;99.90;;;;;;5070154;28;20435;-71
2021/10/09 05:41:08;;;;;;;;;;;5.50;99.90;;;;;;5069724;28;19922;-70
2021/10/09 05:43:33;;;;;;;;;;;5.50;99.90;;;;;;5088832;28;20279;-70
2021/10/09 05:45:59;;;;;;;;;;;5.50;99.90;;;;;;5088841;28;20329;-70
2021/10/09 05:48:25;;;;;;;;;;;5.40;99.90;;;;;;5087249;28;20317;-70
2021/10/09 05:51:01;;;;;;;;;;;5.40;99.90;;;;;;5087521;28;19917;-70
2021/10/09 05:56:14;;;;;;;;;;;5.40;99.90;;;;;;5088856;28;19919;-70
2021/10/09 06:26:10;;;;;;;;;;;5.80;99.90;;;;;;5087257;28;19954;-69
2021/10/09 06:31:48;;;;;;;;;;;6.00;99.90;;;;;;5085066;28;19977;-68
2021/10/09 06:59:27;;;;;;;;;;;5.70;99.90;;;;;;5051599;28;19959;-72
2021/10/09 06:59:30;;;;;;;;;;;5.90;99.90;;;;;;5088693;28;20012;-72
2021/10/09 07:01:55;;;;;;;;;;;5.90;99.90;;;;;;5087347;28;19938;-76
2021/10/09 07:04:21;;;;;;;;;;;6.00;99.90;;;;;;5087915;28;20394;-72
2021/10/09 07:06:48;;;;;;;;;;;6.00;99.90;;;;;;5068952;28;20419;-73
2021/10/09 07:09:14;;;;;;;;;;;6.00;99.90;;;;;;5087077;28;19974;-75
2021/10/09 07:11:39;;;;;;;;;;;6.10;99.90;;;;;;5065910;28;20373;-71
2021/10/09 07:14:06;;;;;;;;;;;6.10;99.90;;;;;;5069879;28;19916;-73
2021/10/09 07:16:31;;;;;;;;;;;6.20;99.90;;;;;;5086881;28;19916;-73
2021/10/09 07:18:57;;;;;;;;;;;6.20;99.90;;;;;;5087184;28;19961;-72
2021/10/09 07:21:22;;;;;;;;;;;6.20;99.90;;;;;;5086947;28;19923;-72
2021/10/09 07:23:47;;;;;;;;;;;6.30;99.90;;;;;;5088671;28;20392;-72
2021/10/09 07:26:13;;;;;;;;;;;6.40;99.90;;;;;;5088530;28;20413;-72
2021/10/09 07:28:38;;;;;;;;;;;6.50;99.90;;;;;;5085703;28;19916;-72
2021/10/09 07:31:04;;;;;;;;;;;6.60;99.90;;;;;;5085621;28;19915;-72
2021/10/09 07:33:29;;;;;;;;;;;6.70;99.90;;;;;;5087581;28;19916;-71
2021/10/09 07:35:55;;;;;;;;;;;6.70;99.90;;;;;;5086404;28;19912;-72
2021/10/09 07:38:20;;;;;;;;;;;6.80;99.90;;;;;;5087606;28;19962;-73
2021/10/09 07:40:45;;;;;;;;;;;6.90;99.90;;;;;;5086429;28;19912;-71
2021/10/09 07:43:11;;;;;;;;;;;6.90;99.90;;;;;;5082971;28;20355;-76
2021/10/09 07:45:36;;;;;;;;;;;6.90;99.90;;;;;;5086569;28;20394;-75
2021/10/09 07:48:02;;;;;;;;;;;7.00;99.90;;;;;;5085677;28;20420;-75
2021/10/09 07:50:27;;;;;;;;;;;7.00;99.90;;;;;;5087224;28;20315;-77
2021/10/09 07:52:53;;;;;;;;;;;7.10;99.90;;;;;;5085166;28;20395;-74
2021/10/09 07:55:18;;;;;;;;;;;7.30;99.90;;;;;;5067755;28;19916;-76
2021/10/09 07:57:43;;;;;;;;;;;7.50;99.90;;;;;;5068816;28;19935;-74
2021/10/09 08:00:09;;;;;;;;;;;7.60;99.90;;;;;;5082476;28;19955;-74
2021/10/09 08:02:35;;;;;;;;;;;7.60;99.90;;;;;;5082519;28;19934;-72
2021/10/09 08:05:03;;;;;;;;;;;7.70;99.90;;;;;;5088314;28;19916;-72
2021/10/09 08:07:30;;;;;;;;;;;7.80;99.90;;;;;;5086441;28;19919;-73
2021/10/09 08:09:55;;;;;;;;;;;7.80;99.90;;;;;;5087121;28;19920;-73
2021/10/09 08:12:21;;;;;;;;;;;7.90;99.60;;;;;;5085527;28;19920;-73
2021/10/09 08:14:46;;;;;;;;;;;7.90;99.70;;;;;;5084836;28;20306;-73
2021/10/09 08:17:12;;;;;;;;;;;8.00;99.40;;;;;;5085561;28;19920;-72
2021/10/09 08:19:37;;;;;;;;;;;8.00;99.60;;;;;;5065593;28;19920;-70
2021/10/09 08:22:07;;;;;;;;;;;8.10;99.80;;;;;;5065010;28;19923;-72
2021/10/09 08:24:55;;;;;;;;;;;8.30;99.80;;;;;;5067505;28;20384;-72
2021/10/09 08:41:03;;;;;;;;;;;9.10;99.60;;;;;;5082227;28;19983;-72
2021/10/09 08:43:28;;;;;;;;;;;9.20;99.20;;;;;;5085703;28;19924;-72
2021/10/09 08:45:54;;;;;;;;;;;9.20;98.70;;;;;;5067877;28;19923;-71
2021/10/09 08:48:23;;;;;;;;;;;9.20;98.80;;;;;;5085760;28;19974;-71
2021/10/09 08:50:49;;;;;;;;;;;9.20;98.60;;;;;;5088646;28;19912;-72
2021/10/09 08:53:14;;;;;;;;;;;9.10;98.50;;;;;;5090691;28;19912;-71
2021/10/09 08:55:45;;;;;;;;;;;9.20;98.80;;;;;;5081486;28;20015;-72
2021/10/09 08:58:26;;;;;;;;;;;9.30;98.90;;;;;;5087249;28;20014;-72
2021/10/09 09:01:01;;;;;;;;;;;9.30;98.80;;;;;;5088715;28;22120;-71
2021/10/09 09:03:54;;;;;;;;;;;9.30;98.70;;;;;;5095050;28;19915;-71
2021/10/09 09:06:36;;;;;;;;;;;9.40;99.00;;;;;;5096050;28;19966;-72
2021/10/09 09:36:47;;;;;;;;;;;10.20;98.10;;;;;;5087909;28;21234;-73
2021/10/09 09:39:13;;;;;;;;;;;10.30;97.50;;;;;;5086983;28;19996;-72
2021/10/09 09:41:42;;;;;;;;;;;10.40;97.60;;;;;;5089654;28;19916;-71
2021/10/09 09:44:09;;;;;;;;;;;10.50;96.50;;;;;;5089092;28;19923;-72
2021/10/09 09:46:35;;;;;;;;;;;10.50;96.90;;;;;;5088713;28;19916;-72
2021/10/09 09:49:00;;;;;;;;;;;10.70;97.30;;;;;;5088516;28;20274;-73
2021/10/09 09:51:26;;;;;;;;;;;10.80;97.10;;;;;;5085803;28;19916;-75
2021/10/09 09:53:51;;;;;;;;;;;11.00;97.00;;;;;;5090411;28;19912;-76
2021/10/09 09:56:17;;;;;;;;;;;11.20;96.70;;;;;;5092204;28;19923;-77
2021/10/09 09:58:44;;;;;;;;;;;11.30;96.50;;;;;;5083095;28;20256;-75
2021/10/09 10:01:11;;;;;;;;;;;11.50;96.30;;;;;;5086089;28;19920;-74
2021/10/09 10:03:37;;;;;;;;;;;11.50;96.30;;;;;;5087267;28;19920;-74
2021/10/09 10:06:03;;;;;;;;;;;11.60;96.20;;;;;;5085432;28;20623;-74
2021/10/09 10:08:29;;;;;;;;;;;11.70;96.20;;;;;;5068324;28;20271;-75
2021/10/09 10:10:55;;;;;;;;;;;11.80;95.40;;;;;;5084570;28;19916;-73
2021/10/09 10:13:23;;;;;;;;;;;11.90;95.20;;;;;;5086565;28;19923;-75
2021/10/09 10:15:50;;;;;;;;;;;12.00;95.50;;;;;;5088088;28;19959;-74
2021/10/09 10:18:35;;;;;;;;;;;12.20;94.90;;;;;;5088481;28;20632;-75
2021/10/09 10:21:00;;;;;;;;;;;12.30;95.20;;;;;;5081898;28;20409;-73
2021/10/09 10:23:33;;;;;;;;;;;12.50;95.10;;;;;;5087696;28;19912;-72
2021/10/09 10:26:18;;;;;;;;;;;12.60;94.70;;;;;;5084594;28;20002;-71
2021/10/09 10:28:43;;;;;;;;;;;12.70;94.50;;;;;;5090058;28;20039;-72
2021/10/09 10:31:08;;;;;;;;;;;12.80;94.40;;;;;;5086959;28;20597;-74
2021/10/09 10:33:41;;;;;;;;;;;12.90;94.40;;;;;;5089096;28;19968;-74
2021/10/09 10:36:08;;;;;;;;;;;12.90;93.50;;;;;;5084248;28;20023;-75
2021/10/09 10:38:34;;;;;;;;;;;12.90;90.20;;;;;;5068210;28;19916;-73
2021/10/09 10:41:03;;;;;;;;;;;12.80;83.50;;;;;;5085724;28;20007;-72
2021/10/09 10:46:15;;;;;;;;;;;12.70;80.60;;;;;;5089044;28;19916;-74
2021/10/09 10:48:46;;;;;;;;;;;12.70;84.10;;;;;;5070464;28;19943;-76
2021/10/09 10:51:57;;;;;;;;;;;12.90;81.50;;;;;;5087526;28;20379;-73
2021/10/09 10:57:04;;;;;;;;;;;13.00;75.10;;;;;;5005547;28;19969;-77
2021/10/09 10:59:29;;;;;;;;;;;12.90;76.90;;;;;;5057825;28;19923;-76
2021/10/09 11:02:07;;;;;;;;;;;12.90;76.90;;;;;;5071315;28;19915;-76
2021/10/09 11:04:33;;;;;;;;;;;13.00;76.90;;;;;;5070280;28;20404;-78
2021/10/09 11:06:59;;;;;;;;;;;13.10;77.30;;;;;;5087400;28;20362;-75
2021/10/09 11:09:24;;;;;;;;;;;13.20;75.30;;;;;;5090452;28;19916;-78
2021/10/09 11:11:50;;;;;;;;;;;13.20;76.20;;;;;;5086590;28;20413;-74
2021/10/09 11:14:22;;;;;;;;;;;13.30;72.80;;;;;;5087057;28;19912;-72
2021/10/09 11:16:48;;;;;;;;;;;13.30;75.00;;;;;;5086828;28;19916;-73
2021/10/09 11:19:13;;;;;;;;;;;13.30;70.20;;;;;;5088343;28;19946;-73
2021/10/09 11:21:54;;;;;;;;;;;13.10;70.00;;;;;;5084850;28;19938;-72
2021/10/09 11:24:20;;;;;;;;;;;13.10;71.60;;;;;;5089166;28;19940;-72
2021/10/09 11:26:52;;;;;;;;;;;13.10;70.30;;;;;;5088757;28;20436;-72
2021/10/09 11:29:18;;;;;;;;;;;13.10;70.60;;;;;;5087850;28;19908;-72
2021/10/09 11:31:43;;;;;;;;;;;13.30;71.20;;;;;;5087717;28;19923;-72
2021/10/09 11:34:09;;;;;;;;;;;13.40;69.40;;;;;;5088121;28;19915;-72
2021/10/09 11:36:38;;;;;;;;;;;13.50;70.10;;;;;;5088532;28;19916;-72
2021/10/09 11:39:08;;;;;;;;;;;13.50;70.40;;;;;;5088266;28;19981;-72
2021/10/09 11:41:33;;;;;;;;;;;13.50;69.00;;;;;;5088567;28;19965;-72
2021/10/09 11:44:05;;;;;;;;;;;13.50;67.40;;;;;;5087806;28;20038;-72
2021/10/09 11:55:01;;;;;;;;;;;13.90;72.90;;;;;;5088112;28;20147;-72
2021/10/09 11:57:30;;;;;;;;;;;14.00;67.10;;;;;;5087942;28;20852;-72
2021/10/09 11:59:55;;;;;;;;;;;14.10;67.70;;;;;;5087535;28;19934;-72
2021/10/09 12:02:31;;;;;;;;;;;14.10;67.60;;;;;;5086398;28;20486;-72
2021/10/09 12:04:57;;;;;;;;;;;14.20;66.70;;;;;;5086616;28;19912;-71
2021/10/09 12:07:23;;;;;;;;;;;14.20;65.80;;;;;;5090316;28;19912;-72
2021/10/09 12:09:58;;;;;;;;;;;14.20;64.90;;;;;;5073143;28;19912;-72
2021/10/09 12:12:26;;;;;;;;;;;14.20;62.70;;;;;;5088067;28;19920;-71
2021/10/09 12:14:52;;;;;;;;;;;14.20;61.70;;;;;;5089224;28;19968;-71
2021/10/09 12:17:20;;;;;;;;;;;14.10;61.30;;;;;;5089275;28;19916;-71
2021/10/09 12:19:56;;;;;;;;;;;14.10;62.60;;;;;;5086922;28;20387;-70
2021/10/09 12:22:21;;;;;;;;;;;14.20;63.00;;;;;;5069101;28;19981;-71
2021/10/09 12:24:48;;;;;;;;;;;14.40;61.70;;;;;;5092708;28;20386;-70
2021/10/09 12:27:15;;;;;;;;;;;14.30;60.90;;;;;;5094223;28;19915;-71
2021/10/09 12:30:01;;;;;;;;;;;14.30;60.00;;;;;;5075559;28;20368;-71
2021/10/09 12:32:27;;;;;;;;;;;14.30;59.40;;;;;;5092674;28;20429;-71
2021/10/09 12:35:04;;;;;;;;;;;14.30;59.60;;;;;;5093102;28;19916;-72
2021/10/09 12:37:30;;;;;;;;;;;14.30;59.10;;;;;;5091746;28;20390;-72
2021/10/09 12:40:12;;;;;;;;;;;14.30;59.00;;;;;;5093298;28;19939;-71
2021/10/09 12:42:40;;;;;;;;;;;14.30;58.40;;;;;;5143212;23;19920;-67
2021/10/09 12:45:06;;;;;;;;;;;14.40;58.30;;;;;;5091356;28;19920;-70
2021/10/09 12:47:32;;;;;;;;;;;14.40;59.20;;;;;;5091216;28;19912;-71
2021/10/09 12:49:57;;;;;;;;;;;14.50;58.00;;;;;;5091363;28;19978;-71
2021/10/09 12:52:23;;;;;;;;;;;14.50;59.00;;;;;;5070594;28;20002;-71
2021/10/09 12:54:48;;;;;;;;;;;14.60;58.30;;;;;;5080537;28;19999;-68
2021/10/09 12:57:17;;;;;;;;;;;14.70;57.80;;;;;;5063425;28;19920;-70
2021/10/09 12:59:42;;;;;;;;;;;14.80;59.70;;;;;;5079727;28;19924;-68
2021/10/09 13:02:08;;;;;;;;;;;15.00;59.20;;;;;;5079609;28;19965;-70
2021/10/09 13:04:34;;;;;;;;;;;15.00;59.90;;;;;;5061609;28;20443;-68
2021/10/09 13:07:00;;;;;;;;;;;15.20;58.80;;;;;;5062406;28;19916;-69
2021/10/09 13:09:26;;;;;;;;;;;15.30;58.30;;;;;;5060586;28;19969;-69
2021/10/09 13:12:00;;;;;;;;;;;15.30;57.60;;;;;;5061452;28;20010;-69
2021/10/09 13:14:35;;;;;;;;;;;15.30;56.10;;;;;;5061993;28;20002;-67
2021/10/09 13:17:01;;;;;;;;;;;15.40;55.90;;;;;;5066370;28;19920;-68
2021/10/09 13:19:26;;;;;;;;;;;15.30;56.90;;;;;;5063114;28;19916;-67
2021/10/09 13:21:52;;;;;;;;;;;15.30;54.90;;;;;;5061650;28;20394;-69
2021/10/09 13:24:17;;;;;;;;;;;15.20;54.20;;;;;;5079009;28;20298;-69
2021/10/09 13:26:46;;;;;;;;;;;15.20;54.80;;;;;;5062076;28;19912;-69
2021/10/09 13:29:14;;;;;;;;;;;15.20;56.40;;;;;;5079456;28;19916;-69
2021/10/09 13:31:40;;;;;;;;;;;15.20;55.00;;;;;;5061041;28;19949;-69
2021/10/09 13:34:09;;;;;;;;;;;15.30;56.90;;;;;;5080939;28;19967;-70
2021/10/09 13:36:34;;;;;;;;;;;15.30;56.30;;;;;;5085011;28;20330;-68
2021/10/09 13:39:00;;;;;;;;;;;15.40;56.50;;;;;;5087676;28;19924;-68
2021/10/09 13:41:26;;;;;;;;;;;15.40;58.10;;;;;;5073669;28;19985;-70
2021/10/09 13:43:52;;;;;;;;;;;15.40;54.70;;;;;;5074984;28;19920;-69
2021/10/09 13:46:20;;;;;;;;;;;15.40;53.80;;;;;;5077786;28;20264;-70
2021/10/09 13:48:46;;;;;;;;;;;15.30;56.90;;;;;;5074093;28;19974;-67
2021/10/09 13:51:12;;;;;;;;;;;15.30;55.70;;;;;;5076088;28;19924;-68
2021/10/09 13:53:42;;;;;;;;;;;15.30;56.50;;;;;;5076020;28;19921;-67
2021/10/09 13:56:07;;;;;;;;;;;15.40;56.30;;;;;;5074075;28;20055;-69
2021/10/09 13:58:33;;;;;;;;;;;15.30;56.00;;;;;;5074989;28;20485;-68
2021/10/09 14:00:58;;;;;;;;;;;15.40;55.80;;;;;;5076097;28;19939;-68
2021/10/09 14:03:25;;;;;;;;;;;15.40;56.80;;;;;;5072244;28;19937;-68
2021/10/09 14:05:51;;;;;;;;;;;15.40;58.20;;;;;;5075882;28;19912;-69
2021/10/09 14:08:17;;;;;;;;;;;15.60;58.00;;;;;;5044032;28;19916;-68
2021/10/09 14:10:42;;;;;;;;;;;15.70;56.70;;;;;;5075954;28;19923;-69
2021/10/09 14:13:11;;;;;;;;;;;15.60;55.50;;;;;;5077505;28;20424;-71
2021/10/09 14:15:37;;;;;;;;;;;15.50;56.60;;;;;;5077467;28;19986;-71
2021/10/09 14:18:03;;;;;;;;;;;15.60;56.70;;;;;;5059367;28;19957;-70
2021/10/09 14:20:28;;;;;;;;;;;15.70;57.60;;;;;;5074917;28;19917;-69
2021/10/09 14:22:53;;;;;;;;;;;15.60;56.60;;;;;;5073492;28;19923;-68
2021/10/09 14:25:19;;;;;;;;;;;15.50;56.10;;;;;;5077650;28;19927;-70
2021/10/09 14:27:45;;;;;;;;;;;15.50;55.80;;;;;;5075852;28;19916;-69
2021/10/09 14:30:10;;;;;;;;;;;15.30;55.80;;;;;;5077830;28;19952;-69
2021/10/09 14:32:36;;;;;;;;;;;15.20;56.00;;;;;;5076741;28;20319;-68
2021/10/09 14:35:02;;;;;;;;;;;15.10;57.20;;;;;;5074937;28;20296;-68
2021/10/09 14:37:28;;;;;;;;;;;15.20;58.10;;;;;;5054628;28;19943;-69
2021/10/09 14:39:53;;;;;;;;;;;15.30;59.60;;;;;;5056670;28;20290;-66
2021/10/09 14:42:20;;;;;;;;;;;15.40;58.60;;;;;;5052678;28;19923;-69
2021/10/09 14:44:46;;;;;;;;;;;15.40;58.20;;;;;;5058653;28;20359;-69
2021/10/09 14:50:08;;;;;;;;;;;15.30;57.60;;;;;;5078507;28;20054;-82
2021/10/09 15:19:06;;;;;;;;;;;15.00;60.20;;;;;;5076669;28;20087;-76
2021/10/09 15:21:32;;;;;;;;;;;15.00;60.20;;;;;;5073250;28;19917;-72
2021/10/09 15:23:57;;;;;;;;;;;15.00;60.30;;;;;;5077083;28;19913;-77
2021/10/09 15:26:23;;;;;;;;;;;14.90;61.40;;;;;;5071994;28;20464;-75
2021/10/09 15:28:48;;;;;;;;;;;14.90;60.70;;;;;;5075938;28;20358;-75
2021/10/09 15:31:16;;;;;;;;;;;14.80;60.50;;;;;;5074616;28;19950;-72
2021/10/09 15:33:42;;;;;;;;;;;14.70;61.40;;;;;;5055406;28;19916;-72
2021/10/09 15:36:07;;;;;;;;;;;14.70;61.30;;;;;;5072742;28;20487;-73
2021/10/09 15:38:33;;;;;;;;;;;14.70;61.80;;;;;;5054132;28;20044;-70
2021/10/09 15:40:58;;;;;;;;;;;14.60;61.50;;;;;;5074457;28;19935;-72
2021/10/09 15:43:24;;;;;;;;;;;14.60;62.50;;;;;;5076170;28;20359;-76
2021/10/09 15:45:50;;;;;;;;;;;14.50;61.60;;;;;;5068235;28;19987;-79
2021/10/09 15:48:15;;;;;;;;;;;14.50;62.10;;;;;;5075599;28;19916;-75
2021/10/09 15:50:41;;;;;;;;;;;14.40;62.20;;;;;;5072362;28;19916;-75
2021/10/09 15:53:12;;;;;;;;;;;14.40;63.10;;;;;;5069010;28;20373;-75
2021/10/09 15:55:37;;;;;;;;;;;14.40;63.00;;;;;;5074473;28;19930;-75
2021/10/09 15:58:03;;;;;;;;;;;14.30;63.20;;;;;;5073844;28;19916;-77
2021/10/09 16:00:28;;;;;;;;;;;14.30;63.60;;;;;;5071868;28;20019;-73
2021/10/09 16:02:54;;;;;;;;;;;14.30;64.30;;;;;;5072447;28;20510;-77
2021/10/09 16:05:19;;;;;;;;;;;14.30;64.90;;;;;;5071577;28;19943;-80
2021/10/09 16:07:45;;;;;;;;;;;14.30;64.70;;;;;;5072341;28;19984;-75
2021/10/09 16:10:10;;;;;;;;;;;14.20;64.90;;;;;;5071109;28;19960;-76
2021/10/09 16:12:36;;;;;;;;;;;14.10;65.20;;;;;;5074560;28;19912;-77
2021/10/09 16:15:03;;;;;;;;;;;14.10;65.00;;;;;;5074280;28;19988;-73
2021/10/09 16:17:29;;;;;;;;;;;14.00;65.40;;;;;;5071883;28;19971;-72
2021/10/09 16:19:55;;;;;;;;;;;14.00;65.80;;;;;;5069696;28;19917;-78
2021/10/09 16:22:21;;;;;;;;;;;13.90;66.60;;;;;;5040053;28;20345;-76
2021/10/09 16:24:46;;;;;;;;;;;13.80;66.80;;;;;;5070664;28;19916;-83
2021/10/09 16:27:12;;;;;;;;;;;13.80;67.00;;;;;;5071913;28;19917;-78
2021/10/09 16:29:38;;;;;;;;;;;13.70;67.40;;;;;;5067535;28;20362;-78
2021/10/09 16:32:04;;;;;;;;;;;13.60;67.50;;;;;;5073453;28;19916;-80
2021/10/09 16:34:30;;;;;;;;;;;13.50;68.00;;;;;;5072377;28;19920;-79
2021/10/09 16:36:58;;;;;;;;;;;13.40;68.50;;;;;;5070626;28;19913;-75
2021/10/09 16:39:24;;;;;;;;;;;13.30;68.60;;;;;;5068439;28;19920;-75
2021/10/09 16:41:50;;;;;;;;;;;13.20;68.90;;;;;;5072335;28;20589;-77
2021/10/09 16:44:16;;;;;;;;;;;13.20;68.80;;;;;;5054296;28;19927;-79
2021/10/09 16:46:42;;;;;;;;;;;13.10;69.20;;;;;;5072538;28;19999;-75
2021/10/09 16:49:07;;;;;;;;;;;13.00;69.40;;;;;;5069761;28;20011;-76
2021/10/09 16:51:33;;;;;;;;;;;12.90;69.60;;;;;;5070787;28;20011;-77
2021/10/09 16:53:59;;;;;;;;;;;12.80;70.20;;;;;;5073819;28;19924;-78